Latest Coastal Weather Observations for Lord Howe Island

IDN60701

Issued at 9:35 pm EST Wednesday 17 September 2014 (issued every 10 minutes, with the page automatically refreshed every 10 minutes)

About coastal observations | Map of coastal stations | Coastal observations for NSW | Marine services | Other Formats
Station Details ID: 200839 Name: LORD HOWE ISLAND AERO Lat: -31.54 Lon: 159.08 Height: 5.0 m
Data from the previous 72 hours. | See also: Recent months at Lord Howe Island
Date/Time
EST
Temp

°C
Wind Pressure Rain
since 9am
mm
Weather Cloud Vis
km
Sea
Height
m
Swell
Dir
 
Speed
knots
Gust
knots
hPa Trend Height
m
Period
s
Dir
17/09:30pm 18.7 WSW 15 19 1014.0 - 0.0 - - 10 - - - -
17/09:00pm 18.9 WSW 16 19 1013.9 - 0.0 - Partly cloudy 10 - - - -
17/08:30pm 18.8 WSW 14 17 1013.8 - 0.0 - Cloudy 10 - - - -
17/08:00pm 18.9 WSW 15 19 1013.7 - 0.0 - - 10 - - - -
17/07:30pm 18.9 WSW 15 17 1013.5 - 0.0 - - 10 - - - -
17/07:00pm 19.0 WSW 15 17 1013.2 - 0.0 - - 10 - - - -
17/06:30pm 18.9 WSW 14 16 1012.8 - 0.0 - - 10 - - - -
17/06:00pm 19.1 WSW 15 17 1012.4 - 0.0 - - 10 - - - -
17/05:30pm 19.1 WSW 14 17 1012.0 - 0.0 - - 10 - - - -
17/05:00pm 19.3 WSW 14 16 1011.8 - 0.0 - - 10 - - - -
17/04:30pm 19.6 WSW 13 16 1011.6 - 0.0 - - 10 - - - -
17/04:00pm 20.0 WSW 13 16 1011.2 - 0.0 - - 10 - - - -
17/03:30pm 20.1 WSW 13 17 1010.9 - 0.0 - - 10 - - - -
17/03:00pm 20.4 WSW 14 17 1010.8 - 0.0 - - 10 - - - -
17/02:30pm 20.6 WSW 13 16 1010.7 R 0.0 Fine Mostly clear 20 - - - -
17/02:00pm 20.6 WSW 15 17 1010.8 - 0.0 - Mostly clear 10 - - - -
17/01:30pm 20.9 WSW 14 17 1010.9 - 0.0 - Mostly clear 10 - - - -
17/01:00pm 20.9 WSW 13 15 1011.1 - 0.0 - Mostly clear 10 - - - -
17/12:30pm 20.8 WSW 13 15 1011.3 - 0.0 - Mostly clear 10 - - - -
17/12:00pm 20.8 WSW 13 15 1011.3 - 0.0 - Mostly clear 10 - - - -
17/11:30am 20.7 WSW 14 17 1011.5 F 0.0 Haze Partly cloudy 15 - - - -
17/11:00am 22.1 W 13 18 1011.8 - 0.0 - Mostly clear 10 - - - -
17/10:30am 21.5 W 13 19 1012.0 - 0.0 - Mostly clear 10 - - - -
17/10:00am 20.9 W 16 23 1012.4 - 0.0 - Mostly clear 10 - - - -
17/09:30am 20.2 W 15 21 1012.4 - 0.0 Showers Mostly clear 10 - - - -
17/09:00am 20.9 NW 13 25 1012.8 - 0.0 - Partly cloudy 10 - - - -
17/08:30am 20.5 NNW 12 24 1013.1 F 9.8 Haze Mostly cloudy 15 - - - -
17/08:20am 20.3 NNW 13 25 1013.0 - 9.8 - Partly cloudy 10 - - - -
17/08:00am 19.9 NNW 11 21 1012.9 - 9.8 - Partly cloudy 10 - - - -
17/07:30am 19.8 NW 10 20 1013.0 - 9.8 - Partly cloudy 10 - - - -
17/07:00am 19.4 NNW 10 15 1012.8 - 9.8 - Mostly clear 10 - - - -
17/06:30am 19.1 N 7 14 1012.6 - 9.8 Thunderstorm Mostly clear 10 - - - -
17/06:00am 19.0 N 9 13 1013.1 - 9.0 Thunderstorm Mostly clear 10 - - - -
17/05:30am 19.0 N 8 15 1013.4 S 8.6 Thunderstorm Mostly cloudy 20 - - - -
17/05:00am 18.6 NE 5 8 1013.2 - 8.6 - Partly cloudy 10 - - - -
17/04:30am 17.7 NNE 6 13 1013.1 - 8.6 - Partly cloudy 10 - - - -
17/04:00am 17.8 NNE 6 13 1012.8 - 8.6 - Partly cloudy 10 - - - -
17/03:52am 17.4 N 5 10 1013.3 - 8.6 - Partly cloudy 10 - - - -
17/03:50am 17.4 N 5 10 1013.4 - 8.6 - Partly cloudy 10 - - - -
17/03:30am 16.9 N 6 12 1013.1 - 8.2 - Partly cloudy 1 - - - -
17/03:23am 17.4 N 6 10 1013.3 - 3.0 - Partly cloudy 6 - - - -
17/03:20am 17.4 N 6 10 1013.1 - 2.4 - Partly cloudy 9 - - - -
17/03:18am 17.5 N 6 10 1013.2 - 2.4 - Partly cloudy 10 - - - -
17/03:06am 17.7 NNE 7 11 1013.0 - 1.8 - Partly cloudy 6 - - - -
17/03:00am 18.2 NW 5 10 1013.3 - 1.4 - Partly cloudy 10 - - - -
17/02:30am 18.4 NE 10 17 1012.5 - 1.0 - Cloudy 10 - - - -
17/02:00am 18.4 N 10 14 1012.6 - 1.0 - Partly cloudy 10 - - - -
17/01:30am 18.3 N 11 25 1012.2 - 1.0 - Partly cloudy 10 - - - -
17/01:00am 17.5 N 13 26 1012.4 - 1.0 - Partly cloudy 10 - - - -
17/12:30am 18.8 NW 9 16 1014.0 - 0.8 - Partly cloudy 10 - - - -
17/12:00am 19.8 NW 10 15 1014.3 - 0.2 - Partly cloudy 10 - - - -
 
Date/Time
EST
Temp

°C
Wind Pressure Rain
since 9am
mm
Weather Cloud Vis
km
Sea
Height
m
Swell
Dir
 
Speed
knots
Gust
knots
hPa Trend Height
m
Period
s
Dir
16/11:30pm 19.8 NNW 9 18 1014.4 - 0.2 - Cloudy 10 - - - -
16/11:28pm 19.7 NNW 9 18 1014.4 - 0.2 - Partly cloudy 10 - - - -
16/11:09pm 19.5 N 7 14 1014.2 - 0.2 - Partly cloudy 10 - - - -
16/11:00pm 19.6 NNW 7 11 1014.1 - 0.2 - Partly cloudy 10 - - - -
16/10:30pm 19.4 N 8 14 1014.2 - 0.2 - - 10 - - - -
16/10:00pm 19.4 NNW 7 14 1014.4 - 0.2 - Partly cloudy 10 - - - -
16/09:30pm 19.4 NNE 6 11 1014.2 - 0.2 - Partly cloudy 10 - - - -
16/09:00pm 19.3 ENE 5 8 1014.1 - 0.2 - - 10 - - - -
16/08:30pm 19.3 ENE 4 7 1014.2 - 0.2 - - 10 - - - -
16/08:00pm 19.4 NNE 7 11 1014.1 - 0.2 - Partly cloudy 10 - - - -
16/07:30pm 19.1 NE 6 8 1013.8 - 0.2 - - 10 - - - -
16/07:00pm 19.0 N 1 6 1014.3 - 0.2 - Partly cloudy 10 - - - -
16/06:30pm 19.3 E 2 4 1014.1 - 0.2 - - 10 - - - -
16/06:00pm 19.4 NW 4 9 1013.9 - 0.2 - Partly cloudy 10 - - - -
16/05:30pm 19.5 NNW 5 10 1014.1 - 0.2 - Cloudy 10 - - - -
16/05:00pm 19.6 NW 6 9 1014.4 - 0.2 - Partly cloudy 10 - - - -
16/04:30pm 19.8 NW 7 12 1014.4 - 0.2 - Partly cloudy 10 - - - -
16/04:00pm 20.1 WNW 6 10 1014.4 - 0.2 - Partly cloudy 10 - - - -
16/03:30pm 20.1 WNW 7 11 1014.3 - 0.2 - - 10 - - - -
16/03:00pm 20.2 WNW 6 11 1014.2 - 0.2 - - 10 - - - -
16/02:30pm 20.6 NW 7 12 1014.3 F 0.2 Recent th'storm Mostly cloudy 22 - - - -
16/02:00pm 20.5 WNW 9 14 1014.3 - 0.2 - Mostly clear 10 - - - -
16/01:30pm 20.8 WNW 10 15 1014.5 - 0.2 - Mostly clear 10 - - - -
16/01:20pm 21.3 W 13 16 1014.7 - 0.2 Thunder Mostly clear 10 - - - -
16/01:00pm 20.6 W 13 19 1014.7 - 0.2 Thunder Mostly clear 10 - - - -
16/12:56pm 20.2 W 11 19 1014.8 - 0.2 Thunder Mostly clear 10 - - - -
16/12:30pm 20.7 NE 3 6 1015.0 - 0.2 - Mostly clear 10 - - - -
16/12:00pm 18.9 NE 7 8 1015.7 - 0.2 Showers Mostly clear 10 - - - -
16/11:30am 19.3 NE 9 10 1016.0 F 0.2 Fine Mostly cloudy 25 - - - -
16/11:00am 19.6 NE 9 11 1016.4 - 0.2 - Mostly clear 10 - - - -
16/10:30am 19.3 ENE 8 9 1016.7 - 0.2 - Mostly clear 10 - - - -
16/10:00am 19.6 ENE 10 12 1017.1 - 0.2 - Mostly clear 10 - - - -
16/09:30am 19.3 ENE 10 12 1017.3 - 0.0 - Mostly clear 10 - - - -
16/09:00am 18.7 ENE 11 13 1017.5 - 0.0 - Mostly clear 10 - - - -
16/08:30am 18.3 ENE 11 13 1017.5 S 3.0 Fine Mostly cloudy 25 - - - -
16/08:00am 17.6 ENE 10 12 1017.3 - 3.0 - Mostly clear 10 - - - -
16/07:30am 17.5 E 9 11 1017.1 - 3.0 - Mostly clear 10 - - - -
16/07:00am 17.4 E 9 12 1017.2 - 3.0 - Mostly clear 10 - - - -
16/06:30am 17.1 E 9 11 1017.3 - 3.0 - Mostly clear 10 - - - -
16/06:00am 16.9 E 10 13 1016.9 - 3.0 - Mostly clear 10 - - - -
16/05:30am 16.3 E 8 11 1016.6 F 3.0 Fine Mostly cloudy 30 - - - -
16/05:00am 16.3 ESE 9 12 1016.3 - 3.0 - - 10 - - - -
16/04:30am 16.4 ESE 7 10 1016.2 - 3.0 - Partly cloudy 10 - - - -
16/04:00am 16.5 ESE 7 11 1016.2 - 3.0 - Partly cloudy 10 - - - -
16/03:30am 16.4 ESE 6 8 1016.0 - 3.0 - Partly cloudy 10 - - - -
16/03:00am 15.6 CALM 0 0 1016.0 - 3.0 - Partly cloudy 10 - - - -
16/02:52am 15.7 CALM 0 0 1015.9 - 3.0 - Partly cloudy 10 - - - -
16/02:37am 15.9 S 2 4 1015.9 - 3.0 - Partly cloudy 10 - - - -
16/02:30am 16.1 S 2 4 1015.9 - 3.0 - Cloudy 10 - - - -
16/02:28am 15.8 SW 2 4 1015.9 - 3.0 - Partly cloudy 10 - - - -
16/02:13am 15.9 NW 2 4 1016.1 - 3.0 - Partly cloudy 10 - - - -
16/02:00am 15.7 S 1 3 1016.1 - 3.0 - Partly cloudy 10 - - - -
16/01:30am 15.8 WSW 3 5 1016.3 - 3.0 - Partly cloudy 10 - - - -
16/01:00am 15.8 WSW 3 4 1016.4 - 3.0 - Partly cloudy 10 - - - -
16/12:30am 15.7 WSW 3 5 1016.8 - 3.0 - Partly cloudy 10 - - - -
16/12:00am 14.9 CALM 0 0 1017.0 - 3.0 - Partly cloudy 10 - - - -
 
Date/Time
EST
Temp

°C
Wind Pressure Rain
since 9am
mm
Weather Cloud Vis
km
Sea
Height
m
Swell
Dir
 
Speed
knots
Gust
knots
hPa Trend Height
m
Period
s
Dir
15/11:54pm 14.8 CALM 0 0 1017.1 - 3.0 - Partly cloudy 10 - - - -
15/11:43pm 14.7 ENE 1 4 1017.3 - 3.0 - Partly cloudy 10 - - - -
15/11:30pm 14.2 N 2 5 1017.3 - 3.0 - Cloudy 10 - - - -
15/11:11pm 12.8 CALM 0 0 1017.2 - 2.8 - Partly cloudy 10 - - - -
15/11:00pm 13.1 CALM 0 0 1017.2 - 2.8 - Partly cloudy 5 - - - -
15/10:50pm 12.8 CALM 0 0 1017.2 - 2.8 - Partly cloudy 5 - - - -
15/10:47pm 12.9 CALM 0 0 1017.3 - 2.8 - Partly cloudy 10 - - - -
15/10:31pm 12.7 CALM 0 0 1017.3 - 2.8 - Partly cloudy 6 - - - -
15/10:30pm 12.7 CALM 0 0 1017.3 - 2.8 - Partly cloudy 9 - - - -
15/10:00pm 12.7 CALM 0 0 1017.6 - 2.8 - Partly cloudy 10 - - - -
15/09:52pm 12.7 CALM 0 0 1017.6 - 2.8 - Partly cloudy 10 - - - -
15/09:30pm 12.5 CALM 0 0 1017.6 - 2.8 - - 10 - - - -
15/09:07pm 12.6 CALM 0 0 1017.6 - 2.8 - - 5 - - - -
15/09:00pm 12.7 CALM 0 0 1017.5 - 2.8 - - 4 - - - -
15/08:31pm 12.2 CALM 0 0 1017.4 - 2.8 - - 0.9 - - - -
15/08:30pm 12.2 CALM 0 0 1017.4 - 2.8 - - 1 - - - -
15/08:28pm 12.2 CALM 0 0 1017.4 - 2.8 - - 3 - - - -
15/08:00pm 13.5 SSW 2 4 1017.2 - 2.8 - - 10 - - - -
15/07:30pm 13.7 SW 3 4 1017.2 - 2.8 - - 9 - - - -
15/07:00pm 13.6 SW 3 4 1016.9 - 2.8 - - 10 - - - -
15/06:30pm 13.4 CALM 0 0 1016.7 - 2.8 - - 10 - - - -
15/06:00pm 13.2 CALM 0 0 1016.4 - 2.8 - - 10 - - - -
15/05:30pm 14.3 CALM 0 0 1016.0 - 2.8 - - 10 - - - -
15/05:00pm 15.8 WSW 3 3 1015.7 - 2.8 - - 10 - - - -
15/04:30pm 17.1 WSW 3 5 1015.5 - 2.8 - - 10 - - - -
15/04:00pm 16.7 WSW 5 6 1015.5 - 2.8 - Partly cloudy 10 - - - -
15/03:30pm 16.1 SSE 2 5 1015.2 - 2.8 - Partly cloudy 10 - - - -
15/03:00pm 15.8 SW 8 12 1016.4 - 2.8 - Partly cloudy 10 - - - -
15/02:53pm 15.6 SW 10 14 1016.5 - 2.6 - Partly cloudy 10 - - - -
15/02:30pm 15.6 SW 13 18 1016.9 - 1.8 - Cloudy 5 - - - -
15/02:18pm 16.0 SW 14 21 1016.7 - 0.6 - Partly cloudy 6 - - - -
15/02:00pm 16.3 SW 9 14 1016.5 - 0.2 - Partly cloudy 10 - - - -
15/01:30pm 17.5 SW 9 13 1016.6 - 0.0 - Partly cloudy 10 - - - -
15/01:00pm 18.0 SW 14 23 1016.8 - 0.0 - Partly cloudy 10 - - - -
15/12:30pm 21.0 W 12 18 1016.8 - 0.0 - - 10 - - - -
15/12:00pm 21.2 W 12 16 1017.1 - 0.0 - Partly cloudy 10 - - - -
15/11:30am 20.9 W 11 14 1017.4 - 0.0 - Cloudy 10 - - - -
15/11:00am 20.4 W 13 16 1018.1 - 0.0 - Partly cloudy 10 - - - -
15/10:30am 20.9 W 11 15 1018.5 - 0.0 - Partly cloudy 10 - - - -
15/10:00am 20.4 W 9 14 1018.6 - 0.0 - Partly cloudy 10 - - - -
15/09:30am 20.5 W 11 15 1018.8 - 0.0 - Partly cloudy 10 - - - -
15/09:00am 20.0 W 9 13 1019.0 - 0.0 - - 10 - - - -
15/08:30am 19.9 W 10 13 1019.2 F 0.2 Fine Mostly clear 30 - - - -
15/08:00am 19.5 W 8 11 1019.1 - 0.2 - Mostly clear 10 - - - -
15/07:30am 19.0 WNW 6 9 1019.0 - 0.2 - Mostly clear 10 - - - -
15/07:00am 18.7 WNW 5 8 1019.0 - 0.2 - Mostly clear 10 - - - -
15/06:30am 18.0 WNW 5 9 1018.9 - 0.2 - Mostly clear 10 - - - -
15/06:00am 17.7 W 8 11 1018.7 - 0.2 - Mostly clear 10 - - - -
15/05:30am 16.8 W 5 8 1018.5 F 0.2 Fine Mostly clear 30 - - - -
15/05:00am 17.3 W 9 12 1018.5 - 0.2 - Partly cloudy 10 - - - -
15/04:30am 17.4 W 10 15 1018.6 - 0.2 - - 10 - - - -
15/04:00am 17.6 W 11 15 1018.6 - 0.2 - Partly cloudy 10 - - - -
15/03:30am 17.5 W 9 13 1018.6 - 0.2 - Partly cloudy 10 - - - -
15/03:00am 17.2 WNW 6 10 1018.6 - 0.2 - - 10 - - - -
15/02:30am 17.0 NW 4 8 1018.7 - 0.2 - Cloudy 10 - - - -
15/02:00am 16.6 WNW 5 7 1018.8 - 0.2 - Partly cloudy 10 - - - -
15/01:30am 15.6 WNW 4 5 1019.0 - 0.2 - Partly cloudy 10 - - - -
15/01:00am 15.8 N 1 3 1019.3 - 0.2 - Partly cloudy 10 - - - -
15/12:30am 16.1 N 6 9 1019.5 - 0.2 - Partly cloudy 10 - - - -
15/12:00am 16.0 N 5 6 1019.9 - 0.2 - Partly cloudy 10 - - - -
 
Date/Time
EST
Temp

°C
Wind Pressure Rain
since 9am
mm
Weather Cloud Vis
km
Sea
Height
m
Swell
Dir
 
Speed
knots
Gust
knots
hPa Trend Height
m
Period
s
Dir
14/11:30pm 16.3 NE 6 7 1020.0 - 0.2 - Cloudy 10 - - - -
14/11:00pm 16.2 NNE 6 8 1020.2 - 0.2 - Cloudy 10 - - - -
14/10:30pm 16.4 N 7 12 1020.6 - 0.2 - Cloudy 10 - - - -
14/10:00pm 16.5 N 6 8 1020.7 - 0.2 - Partly cloudy 10 - - - -
14/09:30pm 16.6 NNE 5 8 1020.8 - 0.2 - Partly cloudy 10 - - - -

Other Formats:

Comma delimited format used in spreadsheet applications
http://www.bom.gov.au/fwo/IDN60701/IDN60701.94995.axf

JavaScript Object Notation format (JSON) in row-major order
http://www.bom.gov.au/fwo/IDN60701/IDN60701.94995.json